Terminal Aerodrome Forecast
Issued by NWS Wakefield, VA

Home | Current Version | Previous Version | Text Only | Print | Product List | Glossary On
Versions: 1 2 3 4 5 6 7 8 9 10 11 12 13 14 15 16 17
000
FTUS41 KAKQ 211100 RRA
TAFORF
TAF
KORF 211142Z 2112/2212 03012KT P6SM -RA BKN006 OVC020
     FM211300 02014KT P6SM SCT006 BKN014
     FM211500 34010KT P6SM SCT040
     FM212200 24008KT P6SM SCT080=

USA.gov is the U.S. government's official web portal to all federal, state and local government web resources and services.